createdAt,value
2018-12-27T00:02:17.715Z,46.30
2018-12-27T00:04:44.055Z,46.33
2018-12-27T00:07:10.405Z,49.00
2018-12-27T00:09:36.769Z,46.47
2018-12-27T00:12:03.827Z,43.13
2018-12-27T00:14:30.904Z,49.37
2018-12-27T00:16:57.398Z,46.97
2018-12-27T00:19:23.814Z,47.83
2018-12-27T00:21:50.222Z,47.17
2018-12-27T00:24:16.558Z,49.40
2018-12-27T00:26:43.679Z,48.07
2018-12-27T00:29:09.996Z,46.30
2018-12-27T00:31:36.371Z,44.30
2018-12-27T00:34:02.817Z,45.00
2018-12-27T00:36:29.167Z,49.47
2018-12-27T00:38:55.491Z,48.23
2018-12-27T00:41:22.728Z,43.03
2018-12-27T00:43:49.740Z,47.33
2018-12-27T00:46:16.077Z,51.90
2018-12-27T00:48:42.327Z,47.83
2018-12-27T00:51:08.610Z,49.93
2018-12-27T00:53:34.933Z,53.10
2018-12-27T00:56:01.267Z,47.97
2018-12-27T00:58:27.655Z,47.50
2018-12-27T01:00:54.688Z,51.93
2018-12-27T01:03:20.931Z,48.17
2018-12-27T01:05:47.187Z,45.73
2018-12-27T01:08:14.154Z,51.83
2018-12-27T01:10:40.375Z,49.47
2018-12-27T01:13:06.709Z,48.43
2018-12-27T01:15:32.925Z,49.10
2018-12-27T01:17:59.108Z,46.67
2018-12-27T01:20:25.312Z,48.40
2018-12-27T01:22:51.548Z,45.43
2018-12-27T01:25:18.568Z,42.87
2018-12-27T01:27:44.768Z,42.20
2018-12-27T01:30:11.101Z,43.80
2018-12-27T01:32:38.100Z,47.73
2018-12-27T01:35:04.305Z,45.50
2018-12-27T01:37:30.554Z,44.27
2018-12-27T01:39:56.738Z,43.30
2018-12-27T01:42:22.956Z,42.97
2018-12-27T01:44:49.948Z,43.33
2018-12-27T01:47:16.187Z,45.57
2018-12-27T01:49:42.434Z,42.33
2018-12-27T01:52:09.683Z,40.53
2018-12-27T01:54:35.890Z,39.70
2018-12-27T01:57:02.132Z,39.10
2018-12-27T01:59:28.368Z,42.37
2018-12-27T02:01:54.577Z,45.67
2018-12-27T02:04:20.791Z,43.53
2018-12-27T02:06:47.163Z,44.30
2018-12-27T02:09:14.132Z,40.20
2018-12-27T02:11:40.356Z,40.53
2018-12-27T02:14:06.753Z,42.67
2018-12-27T02:16:32.964Z,43.80
2018-12-27T02:21:42.754Z,49.38
2018-12-27T02:24:09.816Z,43.97
2018-12-27T02:26:36.012Z,43.70
2018-12-27T02:29:02.236Z,44.23
2018-12-27T02:31:29.208Z,45.17
2018-12-27T02:33:55.432Z,41.30
2018-12-27T02:36:22.371Z,43.87
2018-12-27T02:38:49.330Z,43.70
2018-12-27T02:41:15.551Z,40.97
2018-12-27T02:43:41.756Z,38.70
2018-12-27T02:46:08.798Z,45.03
2018-12-27T02:48:35.008Z,45.17
2018-12-27T02:51:01.201Z,40.70
2018-12-27T02:53:27.424Z,37.00
2018-12-27T02:55:53.656Z,41.13
2018-12-27T02:58:19.860Z,44.33
2018-12-27T03:00:46.048Z,44.80
2018-12-27T03:03:12.275Z,37.30
2018-12-27T03:05:38.468Z,39.80
2018-12-27T03:08:04.700Z,36.67
2018-12-27T03:10:30.900Z,39.87
2018-12-27T03:12:57.112Z,36.47
2018-12-27T03:15:24.053Z,32.93
2018-12-27T03:17:50.995Z,36.77
2018-12-27T03:20:17.945Z,40.27
2018-12-27T03:22:44.172Z,41.00
2018-12-27T03:25:11.121Z,41.43
2018-12-27T03:27:38.062Z,40.77
2018-12-27T03:30:04.992Z,41.87
2018-12-27T03:32:31.952Z,43.50
2018-12-27T03:34:58.900Z,39.77
2018-12-27T03:37:25.832Z,44.83
2018-12-27T03:39:52.760Z,41.20
2018-12-27T03:42:19.303Z,41.60
2018-12-27T03:44:45.607Z,43.93
2018-12-27T03:47:11.819Z,43.20
2018-12-27T03:49:38.025Z,41.43
2018-12-27T03:52:04.207Z,40.27
2018-12-27T03:54:30.403Z,41.57
2018-12-27T03:56:56.624Z,41.77
2018-12-27T03:59:22.867Z,40.67
2018-12-27T04:01:49.060Z,41.00
2018-12-27T04:04:15.282Z,40.40
2018-12-27T04:06:41.500Z,37.80
2018-12-27T04:09:07.704Z,40.47
2018-12-27T04:11:34.657Z,41.83
2018-12-27T04:14:01.598Z,39.93
2018-12-27T04:16:28.556Z,43.33
2018-12-27T04:18:55.519Z,43.63
2018-12-27T04:21:21.741Z,41.57
2018-12-27T04:23:48.098Z,45.03
2018-12-27T04:26:14.268Z,44.43
2018-12-27T04:28:41.229Z,44.30
2018-12-27T04:31:07.505Z,44.57
2018-12-27T04:33:33.764Z,47.00
2018-12-27T04:36:00.774Z,43.57
2018-12-27T04:38:27.031Z,43.27
2018-12-27T04:40:54.002Z,39.40
2018-12-27T04:43:20.241Z,41.07
2018-12-27T04:45:46.540Z,37.43
2018-12-27T04:48:13.524Z,40.13
2018-12-27T04:50:39.743Z,35.50
2018-12-27T04:53:06.746Z,37.77
2018-12-27T04:55:32.964Z,38.07
2018-12-27T04:57:59.181Z,37.37
2018-12-27T05:00:25.419Z,38.47
2018-12-27T05:02:51.643Z,36.53
2018-12-27T05:05:17.879Z,38.07
2018-12-27T05:07:45.368Z,34.20
2018-12-27T05:10:11.588Z,34.53
2018-12-27T05:12:38.592Z,40.50
2018-12-27T05:15:04.833Z,36.10
2018-12-27T05:17:31.059Z,35.67
2018-12-27T05:19:57.278Z,38.40
2018-12-27T05:22:23.536Z,33.83
2018-12-27T05:24:49.794Z,35.40
2018-12-27T05:27:16.088Z,34.27
2018-12-27T05:29:43.065Z,35.20
2018-12-27T05:32:09.293Z,31.67
2018-12-27T05:34:35.903Z,36.50
2018-12-27T05:37:02.159Z,41.07
2018-12-27T05:39:28.364Z,37.57
2018-12-27T05:41:55.333Z,36.67
2018-12-27T05:44:21.554Z,38.80
2018-12-27T05:46:47.862Z,38.97
2018-12-27T05:49:14.824Z,36.40
2018-12-27T05:51:41.064Z,34.27
2018-12-27T05:54:07.285Z,33.33
2018-12-27T05:56:33.700Z,36.73
2018-12-27T05:59:00.644Z,34.90
2018-12-27T06:01:26.861Z,34.00
2018-12-27T06:03:53.146Z,36.00
2018-12-27T06:06:19.472Z,41.33
2018-12-27T06:08:45.691Z,39.40
2018-12-27T06:11:11.903Z,38.03
2018-12-27T06:13:38.140Z,37.80
2018-12-27T06:16:04.936Z,40.53
2018-12-27T06:18:31.956Z,37.40
2018-12-27T06:20:58.178Z,38.27
2018-12-27T06:23:24.420Z,33.90
2018-12-27T06:25:50.652Z,33.03
2018-12-27T06:28:17.101Z,32.33
2018-12-27T06:30:43.356Z,27.50
2018-12-27T06:33:09.568Z,34.97
2018-12-27T06:35:35.795Z,29.37
2018-12-27T06:38:02.752Z,31.27
2018-12-27T06:40:28.958Z,34.67
2018-12-27T06:42:56.195Z,32.17
2018-12-27T06:45:23.245Z,31.57
2018-12-27T06:47:50.187Z,30.40
2018-12-27T06:50:17.173Z,30.97
2018-12-27T06:52:43.399Z,35.87
2018-12-27T06:55:09.607Z,32.23
2018-12-27T06:57:35.855Z,31.20
2018-12-27T07:00:02.091Z,33.00
2018-12-27T07:02:28.323Z,32.40
2018-12-27T07:04:54.573Z,32.27
2018-12-27T07:07:20.784Z,31.63
2018-12-27T07:09:47.024Z,31.63
2018-12-27T07:12:13.281Z,35.47
2018-12-27T07:14:40.267Z,37.17
2018-12-27T07:17:06.508Z,32.47
2018-12-27T07:19:32.737Z,32.40
2018-12-27T07:21:58.956Z,37.20
2018-12-27T07:24:25.748Z,34.47
2018-12-27T07:26:52.708Z,35.33
2018-12-27T07:29:19.664Z,35.03
2018-12-27T07:31:46.152Z,33.70
2018-12-27T07:34:12.408Z,37.30
2018-12-27T07:36:38.635Z,34.60
2018-12-27T07:39:05.753Z,37.07
2018-12-27T07:41:31.984Z,34.73
2018-12-27T07:43:58.235Z,43.07
2018-12-27T07:46:25.489Z,37.00
2018-12-27T07:48:52.457Z,41.47
2018-12-27T07:51:18.691Z,35.80
2018-12-27T07:53:44.916Z,35.17
2018-12-27T07:56:11.153Z,40.07
2018-12-27T07:58:37.660Z,39.47
2018-12-27T08:03:37.044Z,37.40
2018-12-27T08:06:03.272Z,40.40
2018-12-27T08:08:29.491Z,40.50
2018-12-27T08:10:55.716Z,40.10
2018-12-27T08:13:21.945Z,38.63
2018-12-27T08:15:48.222Z,37.37
2018-12-27T08:18:14.459Z,39.40
2018-12-27T08:20:40.713Z,38.27
2018-12-27T08:23:06.944Z,41.57
2018-12-27T08:25:33.195Z,40.23
2018-12-27T08:28:00.181Z,39.10
2018-12-27T08:30:26.404Z,38.90
2018-12-27T08:32:52.684Z,37.97
2018-12-27T08:35:19.653Z,41.43
2018-12-27T08:37:46.633Z,37.37
2018-12-27T08:40:12.874Z,36.53
2018-12-27T08:42:39.091Z,40.13
2018-12-27T08:45:05.692Z,38.87
2018-12-27T08:47:31.924Z,40.53
2018-12-27T08:49:58.882Z,40.40
2018-12-27T08:52:25.132Z,41.50
2018-12-27T08:54:51.719Z,40.33
2018-12-27T08:57:18.684Z,40.70
2018-12-27T08:59:44.904Z,38.10
2018-12-27T09:02:11.880Z,41.50
2018-12-27T09:04:38.099Z,41.60
2018-12-27T09:07:11.786Z,45.23
2018-12-27T09:09:38.017Z,44.63
2018-12-27T09:12:11.260Z,43.90
2018-12-27T09:14:38.375Z,40.30
2018-12-27T09:17:04.584Z,47.03
2018-12-27T09:19:30.820Z,47.90
2018-12-27T09:21:57.065Z,45.90
2018-12-27T09:24:23.345Z,50.53
2018-12-27T09:26:51.215Z,47.47
2018-12-27T09:29:18.464Z,51.67
2018-12-27T09:31:45.425Z,48.80
2018-12-27T09:34:11.637Z,49.90
2018-12-27T09:36:38.604Z,47.30
2018-12-27T09:39:04.893Z,50.83
2018-12-27T09:41:31.118Z,52.83
2018-12-27T09:43:57.341Z,49.57
2018-12-27T09:46:23.700Z,51.10
2018-12-27T09:48:50.660Z,48.83
2018-12-27T09:51:16.911Z,49.20
2018-12-27T09:53:43.167Z,45.93
2018-12-27T09:56:09.467Z,49.77
2018-12-27T09:58:35.708Z,48.60
2018-12-27T10:01:01.971Z,48.63
2018-12-27T10:03:28.928Z,49.43
2018-12-27T10:05:56.145Z,47.53
2018-12-27T10:08:22.434Z,46.07
2018-12-27T10:10:48.727Z,48.13
2018-12-27T10:13:15.003Z,48.33
2018-12-27T10:15:42.772Z,53.17
2018-12-27T10:18:09.094Z,50.03
2018-12-27T10:20:35.338Z,48.03
2018-12-27T10:23:01.621Z,49.13
2018-12-27T10:25:27.928Z,56.17
2018-12-27T10:27:54.928Z,53.33
2018-12-27T10:30:21.192Z,47.37
2018-12-27T10:32:47.747Z,48.67
2018-12-27T10:35:13.988Z,51.20
2018-12-27T10:37:40.235Z,44.40
2018-12-27T10:40:06.496Z,56.33
2018-12-27T10:42:32.724Z,49.30
2018-12-27T10:44:59.100Z,54.30
2018-12-27T10:47:25.340Z,53.00
2018-12-27T10:49:51.603Z,53.43
2018-12-27T10:52:18.405Z,54.63
2018-12-27T10:54:44.700Z,49.50
2018-12-27T10:57:12.632Z,52.33
2018-12-27T10:59:38.892Z,51.77
2018-12-27T11:02:12.209Z,51.97
2018-12-27T11:04:39.265Z,52.40
2018-12-27T11:07:05.508Z,52.77
2018-12-27T11:09:32.105Z,54.97
2018-12-27T11:11:59.103Z,52.70
2018-12-27T11:14:25.323Z,52.03
2018-12-27T11:16:51.571Z,53.47
2018-12-27T11:19:17.800Z,46.87
2018-12-27T11:21:44.784Z,54.40
2018-12-27T11:24:11.039Z,51.17
2018-12-27T11:26:38.152Z,51.93
2018-12-27T11:29:05.133Z,51.43
2018-12-27T11:31:31.398Z,55.80
2018-12-27T11:33:57.658Z,52.67
2018-12-27T11:36:24.688Z,58.20
2018-12-27T11:38:51.664Z,51.97
2018-12-27T11:41:17.952Z,53.60
2018-12-27T11:43:45.011Z,47.93
2018-12-27T11:46:11.357Z,50.93
2018-12-27T11:48:37.651Z,50.13
2018-12-27T11:51:03.922Z,51.13
2018-12-27T11:53:30.159Z,54.00
2018-12-27T11:55:56.472Z,51.97
2018-12-27T11:58:22.768Z,53.67
2018-12-27T12:00:48.982Z,51.53
2018-12-27T12:03:15.228Z,47.57
2018-12-27T12:05:42.224Z,51.37
2018-12-27T12:08:08.491Z,50.37
2018-12-27T12:10:35.666Z,52.73
2018-12-27T12:13:02.653Z,48.07
2018-12-27T12:15:28.913Z,49.27
2018-12-27T12:17:55.241Z,49.70
2018-12-27T12:20:21.512Z,52.27
2018-12-27T12:22:48.477Z,45.20
2018-12-27T12:25:16.235Z,51.13
2018-12-27T12:27:42.511Z,49.13
2018-12-27T12:30:09.542Z,48.90
2018-12-27T12:32:35.852Z,55.97
2018-12-27T12:35:02.129Z,51.03
2018-12-27T12:37:28.423Z,47.50
2018-12-27T12:39:54.737Z,51.13
2018-12-27T12:42:32.416Z,50.87
2018-12-27T12:44:48.114Z,47.17
2018-12-27T12:47:14.420Z,51.70
2018-12-27T12:49:40.711Z,50.37
2018-12-27T12:52:06.942Z,52.30
2018-12-27T12:54:33.230Z,47.77
2018-12-27T12:56:59.477Z,43.20
2018-12-27T12:59:25.744Z,53.30
2018-12-27T13:01:52.770Z,47.57
2018-12-27T13:04:19.036Z,47.80
2018-12-27T13:06:45.312Z,52.83
2018-12-27T13:09:11.580Z,48.33
2018-12-27T13:11:37.835Z,50.30
2018-12-27T13:14:04.121Z,49.87
2018-12-27T13:16:30.389Z,51.03
2018-12-27T13:18:56.653Z,54.57
2018-12-27T13:21:22.893Z,48.90
2018-12-27T13:23:49.900Z,46.97
2018-12-27T13:26:16.144Z,50.23
2018-12-27T13:28:42.431Z,50.30
2018-12-27T13:31:08.704Z,51.07
2018-12-27T13:33:34.953Z,50.17
2018-12-27T13:36:01.283Z,45.40
2018-12-27T13:38:27.554Z,47.60
2018-12-27T13:40:53.875Z,47.93
2018-12-27T13:43:21.330Z,47.70
2018-12-27T13:45:47.692Z,44.77
2018-12-27T13:48:14.759Z,47.90
2018-12-27T13:50:42.004Z,47.97
2018-12-27T13:53:08.255Z,51.00
2018-12-27T13:55:34.544Z,47.47
2018-12-27T13:58:00.834Z,49.33
2018-12-27T14:00:27.157Z,45.40
2018-12-27T14:02:53.721Z,45.63
2018-12-27T14:05:19.971Z,41.20
2018-12-27T14:07:46.232Z,42.57
2018-12-27T14:10:12.485Z,49.93
2018-12-27T14:12:39.716Z,44.37
2018-12-27T14:15:06.720Z,45.43
2018-12-27T14:17:33.014Z,45.83
2018-12-27T14:19:59.291Z,41.87
2018-12-27T14:22:25.525Z,47.73
2018-12-27T14:24:57.693Z,42.37
2018-12-27T14:27:18.475Z,42.53
2018-12-27T14:29:44.731Z,39.63
2018-12-27T14:32:10.975Z,40.63
2018-12-27T14:34:38.562Z,45.90
2018-12-27T14:37:04.797Z,40.07
2018-12-27T14:39:31.073Z,39.40
2018-12-27T14:41:57.331Z,41.17
2018-12-27T14:44:23.608Z,38.73
2018-12-27T14:46:49.942Z,39.03
2018-12-27T14:49:16.787Z,38.17
2018-12-27T14:51:43.070Z,41.00
2018-12-27T14:54:09.343Z,38.53
2018-12-27T14:56:35.644Z,38.77
2018-12-27T14:59:01.916Z,37.63
2018-12-27T15:01:28.939Z,36.17
2018-12-27T15:03:55.204Z,40.23
2018-12-27T15:06:21.576Z,31.90
2018-12-27T15:08:47.841Z,37.27
2018-12-27T15:11:14.811Z,36.43
2018-12-27T15:13:41.150Z,39.20
2018-12-27T15:16:07.928Z,33.43
2018-12-27T15:18:35.441Z,35.77
2018-12-27T15:21:01.981Z,34.00
2018-12-27T15:23:28.998Z,33.87
2018-12-27T15:25:55.259Z,32.20
2018-12-27T15:28:21.556Z,37.03
2018-12-27T15:30:48.139Z,37.47
2018-12-27T15:33:14.410Z,33.47
2018-12-27T15:35:41.440Z,33.77
2018-12-27T15:38:07.779Z,38.03
2018-12-27T15:40:34.031Z,45.13
2018-12-27T15:43:01.112Z,37.57
2018-12-27T15:45:27.569Z,38.93
2018-12-27T15:47:53.852Z,38.07
2018-12-27T15:50:20.898Z,37.57
2018-12-27T15:52:47.943Z,40.93
2018-12-27T15:55:14.967Z,37.63
2018-12-27T15:57:41.267Z,38.23
2018-12-27T16:00:08.401Z,39.50
2018-12-27T16:02:34.674Z,37.63
2018-12-27T16:05:01.627Z,37.60
2018-12-27T16:07:28.639Z,39.60
2018-12-27T16:09:54.929Z,37.83
2018-12-27T16:12:21.206Z,38.97
2018-12-27T16:14:48.222Z,39.33
2018-12-27T16:17:14.493Z,39.17
2018-12-27T16:19:40.816Z,41.17
2018-12-27T16:22:08.013Z,44.27
2018-12-27T16:24:34.247Z,42.83
2018-12-27T16:27:00.506Z,44.33
2018-12-27T16:29:26.762Z,47.30
2018-12-27T16:31:53.134Z,38.33
2018-12-27T16:34:19.441Z,38.10
2018-12-27T16:36:46.407Z,39.80
2018-12-27T16:39:12.672Z,40.80
2018-12-27T16:41:38.920Z,41.53
2018-12-27T16:44:05.195Z,40.60
2018-12-27T16:46:31.628Z,39.60
2018-12-27T16:48:57.864Z,40.77
2018-12-27T16:51:24.125Z,36.63
2018-12-27T16:53:50.412Z,36.53
2018-12-27T16:56:16.815Z,35.10
2018-12-27T16:58:43.785Z,36.77
2018-12-27T17:01:10.009Z,33.00
2018-12-27T17:03:36.276Z,39.20
2018-12-27T17:06:02.580Z,32.43
2018-12-27T17:08:28.788Z,37.60
2018-12-27T17:10:55.847Z,33.33
2018-12-27T17:13:22.116Z,33.67
2018-12-27T17:15:48.349Z,31.37
2018-12-27T17:18:14.619Z,35.30
2018-12-27T17:20:40.910Z,31.00
2018-12-27T17:23:07.216Z,30.10
2018-12-27T17:25:33.516Z,27.83
2018-12-27T17:27:59.834Z,28.47
2018-12-27T17:30:26.852Z,28.50
2018-12-27T17:32:53.153Z,42.33
2018-12-27T17:35:19.427Z,27.30
2018-12-27T17:37:45.683Z,25.53
2018-12-27T17:40:12.732Z,27.83
2018-12-27T17:42:39.132Z,29.87
2018-12-27T17:45:06.961Z,28.87
2018-12-27T17:47:33.268Z,27.83
2018-12-27T17:49:59.575Z,29.33
2018-12-27T17:52:30.191Z,32.73
2018-12-27T17:54:52.652Z,30.00
2018-12-27T17:57:18.936Z,29.97
2018-12-27T17:59:45.147Z,35.87
2018-12-27T18:02:11.432Z,30.43
2018-12-27T18:04:37.650Z,36.50
2018-12-27T18:07:04.639Z,36.77
2018-12-27T18:09:30.881Z,33.03
2018-12-27T18:11:57.356Z,37.70
2018-12-27T18:14:23.623Z,36.63
2018-12-27T18:16:49.864Z,39.87
2018-12-27T18:19:16.100Z,40.17
2018-12-27T18:21:42.345Z,33.33
2018-12-27T18:24:09.531Z,39.00
2018-12-27T18:26:35.769Z,38.23
2018-12-27T18:29:02.056Z,36.33
2018-12-27T18:31:29.063Z,39.70
2018-12-27T18:33:55.312Z,36.40
2018-12-27T18:36:21.589Z,36.70
2018-12-27T18:38:47.811Z,35.77
2018-12-27T18:41:14.081Z,36.03
2018-12-27T18:43:40.315Z,36.40
2018-12-27T18:46:06.677Z,41.00
2018-12-27T18:48:32.956Z,33.20
2018-12-27T18:50:59.336Z,36.67
2018-12-27T18:53:26.303Z,39.30
2018-12-27T18:55:52.536Z,39.53
2018-12-27T18:58:18.788Z,41.70
2018-12-27T19:00:45.080Z,37.60
2018-12-27T19:03:11.329Z,39.97
2018-12-27T19:05:37.581Z,47.53
2018-12-27T19:08:03.852Z,39.67
2018-12-27T19:10:30.878Z,36.60
2018-12-27T19:13:03.204Z,43.50
2018-12-27T19:15:29.470Z,40.37
2018-12-27T19:17:56.737Z,40.27
2018-12-27T19:20:24.577Z,37.70
2018-12-27T19:22:50.880Z,38.67
2018-12-27T19:25:17.201Z,39.87
2018-12-27T19:27:43.463Z,35.80
2018-12-27T19:30:09.736Z,37.07
2018-12-27T19:32:36.012Z,39.47
2018-12-27T19:35:02.292Z,39.70
2018-12-27T19:37:28.580Z,36.13
2018-12-27T19:39:54.830Z,39.17
2018-12-27T19:42:21.815Z,37.67
2018-12-27T19:44:48.149Z,37.80
2018-12-27T19:47:14.475Z,35.10
2018-12-27T19:49:40.729Z,42.87
2018-12-27T19:52:07.000Z,35.03
2018-12-27T19:54:33.996Z,42.70
2018-12-27T19:57:00.254Z,35.03
2018-12-27T19:59:27.204Z,35.70
2018-12-27T20:01:54.225Z,39.07
2018-12-27T20:04:20.516Z,39.30
2018-12-27T20:06:46.804Z,33.77
2018-12-27T20:09:13.056Z,36.00
2018-12-27T20:11:39.328Z,34.47
2018-12-27T20:14:06.413Z,35.97
2018-12-27T20:16:33.441Z,34.07
2018-12-27T20:18:59.788Z,35.60
2018-12-27T20:21:26.069Z,36.97
2018-12-27T20:23:52.301Z,36.77
2018-12-27T20:26:18.549Z,31.13
2018-12-27T20:28:44.816Z,29.70
2018-12-27T20:31:11.830Z,34.60
2018-12-27T20:33:38.284Z,34.77
2018-12-27T20:36:05.323Z,32.40
2018-12-27T20:38:31.589Z,33.90
2018-12-27T20:40:57.886Z,32.10
2018-12-27T20:43:24.903Z,33.80
2018-12-27T20:45:51.915Z,31.60
2018-12-27T20:48:18.210Z,32.20
2018-12-27T20:50:45.233Z,35.07
2018-12-27T20:53:11.499Z,37.47
2018-12-27T20:55:37.777Z,32.53
2018-12-27T20:58:04.059Z,33.70
2018-12-27T21:00:30.309Z,33.23
2018-12-27T21:02:56.541Z,34.57
2018-12-27T21:05:23.041Z,34.37
2018-12-27T21:07:49.264Z,41.10
2018-12-27T21:10:15.581Z,42.00
2018-12-27T21:12:43.573Z,40.80
2018-12-27T21:15:10.121Z,41.33
2018-12-27T21:17:36.367Z,38.87
2018-12-27T21:20:02.649Z,39.53
2018-12-27T21:22:28.920Z,38.83
2018-12-27T21:24:55.224Z,40.57
2018-12-27T21:27:21.474Z,34.70
2018-12-27T21:29:47.696Z,40.37
2018-12-27T21:32:14.009Z,37.27
2018-12-27T21:34:40.318Z,38.37
2018-12-27T21:37:06.620Z,37.30
2018-12-27T21:39:33.647Z,39.53
2018-12-27T21:41:59.899Z,34.17
2018-12-27T21:44:26.182Z,41.73
2018-12-27T21:46:52.567Z,35.63
2018-12-27T21:49:19.599Z,35.27
2018-12-27T21:51:45.887Z,41.03
2018-12-27T21:54:12.131Z,39.63
2018-12-27T21:56:38.436Z,40.90
2018-12-27T21:59:04.719Z,40.50
2018-12-27T22:01:30.969Z,44.23
2018-12-27T22:03:58.607Z,40.77
2018-12-27T22:06:25.641Z,41.43
2018-12-27T22:08:52.004Z,37.73
2018-12-27T22:11:18.320Z,39.27
2018-12-27T22:13:44.573Z,41.33
2018-12-27T22:16:11.524Z,42.53
2018-12-27T22:18:37.794Z,41.50
2018-12-27T22:21:04.644Z,36.83
2018-12-27T22:23:30.376Z,36.53
2018-12-27T22:25:57.410Z,45.20
2018-12-27T22:28:23.683Z,38.07
2018-12-27T22:30:49.972Z,39.77
2018-12-27T22:33:16.246Z,40.23
2018-12-27T22:35:42.500Z,44.80
2018-12-27T22:38:08.887Z,42.00
2018-12-27T22:40:36.792Z,41.97
2018-12-27T22:43:03.031Z,41.03
2018-12-27T22:45:29.320Z,41.40
2018-12-27T22:47:55.576Z,42.30
2018-12-27T22:50:21.860Z,44.10
2018-12-27T22:52:48.147Z,44.23
2018-12-27T22:55:14.376Z,40.33
2018-12-27T22:57:40.612Z,49.23
2018-12-27T23:00:06.902Z,41.97
2018-12-27T23:02:33.162Z,37.80
2018-12-27T23:05:00.424Z,40.23
2018-12-27T23:07:26.672Z,51.37
2018-12-27T23:09:53.695Z,46.17
2018-12-27T23:12:19.956Z,46.43
2018-12-27T23:14:46.248Z,40.20
2018-12-27T23:17:12.500Z,45.87
2018-12-27T23:19:39.495Z,50.67
2018-12-27T23:22:05.738Z,41.03
2018-12-27T23:24:32.021Z,41.30
2018-12-27T23:26:58.288Z,46.93
2018-12-27T23:29:24.535Z,43.83
2018-12-27T23:31:50.750Z,46.23
2018-12-27T23:34:17.003Z,49.10
2018-12-27T23:36:43.251Z,44.93
2018-12-27T23:39:10.216Z,44.97
2018-12-27T23:41:36.479Z,52.03
2018-12-27T23:44:03.579Z,48.40
2018-12-27T23:46:30.611Z,46.63
2018-12-27T23:48:57.620Z,51.60
2018-12-27T23:51:23.899Z,51.27
2018-12-27T23:53:50.908Z,47.87
2018-12-27T23:56:17.143Z,46.77
2018-12-27T23:58:43.355Z,50.83
